createdAt,value
2019-03-11T00:02:47.960Z,1.00
2019-03-11T00:06:50.441Z,1.23
2019-03-11T00:10:53.143Z,0.90
2019-03-11T00:14:55.849Z,1.37
2019-03-11T00:18:58.587Z,1.13
2019-03-11T00:23:01.224Z,1.40
2019-03-11T00:27:05.090Z,1.37
2019-03-11T00:31:07.778Z,1.13
2019-03-11T00:35:10.409Z,1.03
2019-03-11T00:39:12.839Z,1.17
2019-03-11T00:43:15.495Z,1.13
2019-03-11T00:47:18.350Z,1.07
2019-03-11T00:51:20.850Z,1.20
2019-03-11T00:55:23.312Z,0.93
2019-03-11T00:59:25.955Z,1.20
2019-03-11T01:03:28.394Z,1.17
2019-03-11T01:07:31.034Z,1.57
2019-03-11T01:11:33.451Z,1.20
2019-03-11T01:15:35.987Z,1.27
2019-03-11T01:19:38.422Z,1.80
2019-03-11T01:23:41.139Z,1.03
2019-03-11T01:27:43.661Z,0.97
2019-03-11T01:31:46.162Z,1.20
2019-03-11T01:35:48.682Z,0.97
2019-03-11T01:39:51.342Z,1.37
2019-03-11T01:43:53.772Z,1.17
2019-03-11T01:47:56.616Z,1.30
2019-03-11T01:51:59.112Z,1.10
2019-03-11T01:56:01.608Z,1.50
2019-03-11T02:00:05.017Z,1.20
2019-03-11T02:04:08.551Z,1.73
2019-03-11T02:08:11.235Z,1.53
2019-03-11T02:12:13.791Z,1.97
2019-03-11T02:16:16.582Z,1.33
2019-03-11T02:20:19.348Z,1.23
2019-03-11T02:24:21.784Z,1.60
2019-03-11T02:28:24.260Z,1.23
2019-03-11T02:32:28.670Z,1.70
2019-03-11T02:36:30.886Z,1.60
2019-03-11T02:40:34.589Z,2.10
2019-03-11T02:44:37.105Z,1.70
2019-03-11T02:48:39.674Z,1.53
2019-03-11T02:52:42.393Z,1.30
2019-03-11T02:56:44.860Z,1.80
2019-03-11T03:00:48.858Z,1.53
2019-03-11T03:05:01.931Z,1.57
2019-03-11T03:09:06.016Z,1.20
2019-03-11T03:13:08.752Z,1.47
2019-03-11T03:17:12.642Z,1.77
2019-03-11T03:21:15.160Z,1.70
2019-03-11T03:25:32.147Z,1.67
2019-03-11T03:29:21.891Z,1.90
2019-03-11T03:33:24.357Z,1.90
2019-03-11T03:37:27.809Z,1.70
2019-03-11T03:41:30.435Z,1.97
2019-03-11T03:45:35.722Z,1.90
2019-03-11T03:49:38.903Z,1.57
2019-03-11T03:53:41.560Z,2.00
2019-03-11T03:57:44.213Z,1.67
2019-03-11T04:01:46.662Z,1.90
2019-03-11T04:05:49.308Z,2.10
2019-03-11T04:09:51.726Z,1.90
2019-03-11T04:13:54.270Z,1.70
2019-03-11T04:17:56.962Z,2.13
2019-03-11T04:21:59.556Z,1.97
2019-03-11T04:26:02.192Z,2.67
2019-03-11T04:30:05.514Z,1.60
2019-03-11T04:34:07.954Z,1.87
2019-03-11T04:38:10.549Z,2.43
2019-03-11T04:42:12.972Z,1.50
2019-03-11T04:46:15.559Z,1.70
2019-03-11T04:50:18.661Z,1.37
2019-03-11T04:54:21.292Z,1.63
2019-03-11T04:58:23.719Z,2.13
2019-03-11T05:02:26.270Z,1.53
2019-03-11T05:06:28.701Z,1.37
2019-03-11T05:10:31.198Z,1.67
2019-03-11T05:14:33.630Z,0.70
2019-03-11T05:18:36.114Z,2.17
2019-03-11T05:22:38.733Z,1.77
2019-03-11T05:26:42.280Z,1.63
2019-03-11T05:30:44.857Z,1.47
2019-03-11T05:34:48.614Z,1.90
2019-03-11T05:38:51.040Z,1.50
2019-03-11T05:42:53.544Z,1.93
2019-03-11T05:46:56.032Z,2.10
2019-03-11T05:50:58.578Z,2.00
2019-03-11T05:55:02.200Z,1.47
2019-03-11T05:59:04.744Z,2.00
2019-03-11T06:03:07.143Z,2.30
2019-03-11T06:07:09.636Z,1.60
2019-03-11T06:11:12.065Z,2.00
2019-03-11T06:15:15.405Z,1.87
2019-03-11T06:19:17.835Z,1.33
2019-03-11T06:23:20.447Z,1.70
2019-03-11T06:27:22.883Z,2.00
2019-03-11T06:31:25.382Z,2.50
2019-03-11T06:35:27.863Z,2.40
2019-03-11T06:39:30.464Z,1.93
2019-03-11T06:43:33.114Z,2.40
2019-03-11T06:47:35.638Z,1.27
2019-03-11T06:51:38.232Z,2.20
2019-03-11T06:55:40.773Z,2.27
2019-03-11T06:59:44.418Z,1.90
2019-03-11T07:03:46.885Z,2.20
2019-03-11T07:07:49.375Z,1.60
2019-03-11T07:11:51.843Z,2.33
2019-03-11T07:15:54.267Z,2.20
2019-03-11T07:19:56.868Z,2.33
2019-03-11T07:24:00.679Z,2.13
2019-03-11T07:28:03.363Z,1.97
2019-03-11T07:32:05.828Z,2.93
2019-03-11T07:36:08.728Z,3.40
2019-03-11T07:40:11.360Z,2.57
2019-03-11T07:44:15.123Z,2.83
2019-03-11T07:48:17.753Z,1.80
2019-03-11T07:52:20.249Z,2.87
2019-03-11T07:56:22.767Z,1.30
2019-03-11T08:00:25.252Z,2.27
2019-03-11T08:04:27.658Z,2.20
2019-03-11T08:08:31.222Z,1.73
2019-03-11T08:12:33.659Z,1.47
2019-03-11T08:16:36.143Z,1.80
2019-03-11T08:20:38.562Z,1.97
2019-03-11T08:24:41.073Z,2.57
2019-03-11T08:28:43.508Z,1.77
2019-03-11T08:32:46.202Z,1.27
2019-03-11T08:36:49.874Z,1.60
2019-03-11T08:40:52.387Z,1.80
2019-03-11T08:44:54.789Z,1.20
2019-03-11T08:48:57.348Z,1.87
2019-03-11T08:53:00.089Z,1.43
2019-03-11T08:57:02.603Z,1.30
2019-03-11T09:01:06.422Z,1.43
2019-03-11T09:05:10.240Z,1.37
2019-03-11T09:09:14.504Z,1.63
2019-03-11T09:13:16.973Z,1.17
2019-03-11T09:17:19.392Z,1.40
2019-03-11T09:21:22.285Z,1.50
2019-03-11T09:25:24.822Z,1.90
2019-03-11T09:29:27.288Z,2.00
2019-03-11T09:33:29.689Z,1.00
2019-03-11T09:37:32.188Z,1.40
2019-03-11T09:41:34.704Z,1.40
2019-03-11T09:45:37.393Z,1.07
2019-03-11T09:49:39.836Z,1.23
2019-03-11T09:53:42.760Z,0.93
2019-03-11T09:57:45.300Z,0.63
2019-03-11T10:01:47.978Z,0.70
2019-03-11T10:05:50.361Z,0.67
2019-03-11T10:09:52.951Z,1.17
2019-03-11T10:13:55.401Z,1.00
2019-03-11T10:17:57.977Z,0.43
2019-03-11T10:22:00.379Z,0.80
2019-03-11T10:26:02.901Z,0.83
2019-03-11T10:30:06.496Z,0.80
2019-03-11T10:34:08.981Z,0.70
2019-03-11T10:38:11.480Z,0.90
2019-03-11T10:42:14.026Z,1.13
2019-03-11T10:46:16.571Z,1.13
2019-03-11T10:50:19.327Z,1.40
2019-03-11T10:54:21.759Z,0.60
2019-03-11T10:58:25.895Z,0.67
2019-03-11T11:02:28.416Z,1.33
2019-03-11T11:06:30.858Z,1.50
2019-03-11T11:10:33.276Z,1.30
2019-03-11T11:14:35.976Z,0.97
2019-03-11T11:18:38.738Z,1.20
2019-03-11T11:22:41.402Z,1.30
2019-03-11T11:26:43.916Z,1.57
2019-03-11T11:30:46.409Z,1.43
2019-03-11T11:34:49.947Z,1.30
2019-03-11T11:38:52.755Z,1.80
2019-03-11T11:42:55.302Z,1.30
2019-03-11T11:46:57.837Z,1.47
2019-03-11T11:51:00.225Z,1.93
2019-03-11T11:55:02.731Z,4.17
2019-03-11T11:59:05.266Z,5.30
2019-03-11T12:03:09.602Z,2.50
2019-03-11T12:07:12.307Z,2.87
2019-03-11T12:11:14.770Z,6.63
2019-03-11T12:15:17.499Z,2.20
2019-03-11T12:19:21.431Z,3.03
2019-03-11T12:23:24.204Z,1.87
2019-03-11T12:27:26.885Z,2.13
2019-03-11T12:31:29.581Z,1.97
2019-03-11T12:35:33.579Z,1.90
2019-03-11T12:39:36.129Z,2.40
2019-03-11T12:43:38.588Z,1.80
2019-03-11T12:47:41.096Z,1.90
2019-03-11T12:51:49.674Z,2.10
2019-03-11T12:55:48.942Z,1.90
2019-03-11T12:59:51.488Z,1.53
2019-03-11T13:03:53.912Z,2.07
2019-03-11T13:07:58.298Z,2.00
2019-03-11T13:12:00.832Z,2.07
2019-03-11T13:16:03.648Z,2.03
2019-03-11T13:20:08.788Z,2.77
2019-03-11T13:24:11.300Z,2.80
2019-03-11T13:28:13.748Z,3.80
2019-03-11T13:32:16.278Z,2.83
2019-03-11T13:36:19.152Z,3.23
2019-03-11T13:40:21.694Z,2.33
2019-03-11T13:44:24.245Z,3.33
2019-03-11T13:48:26.750Z,2.23
2019-03-11T13:52:29.303Z,2.57
2019-03-11T13:56:31.834Z,2.10
2019-03-11T14:00:34.287Z,2.40
2019-03-11T14:04:36.970Z,2.70
2019-03-11T14:08:39.644Z,2.07
2019-03-11T14:12:42.472Z,1.97
2019-03-11T14:16:44.978Z,2.63
2019-03-11T14:20:47.500Z,2.30
2019-03-11T14:24:50.186Z,1.70
2019-03-11T14:28:52.766Z,2.83
2019-03-11T14:32:55.431Z,2.87
2019-03-11T14:36:57.923Z,2.60
2019-03-11T14:41:00.380Z,2.57
2019-03-11T14:45:02.962Z,2.80
2019-03-11T14:49:05.696Z,4.27
2019-03-11T14:53:08.684Z,2.40
2019-03-11T14:57:11.420Z,2.70
2019-03-11T15:01:13.902Z,2.67
2019-03-11T15:05:17.739Z,2.40
2019-03-11T15:09:20.525Z,2.10
2019-03-11T15:13:24.846Z,2.43
2019-03-11T15:17:28.761Z,7.63
2019-03-11T15:21:31.420Z,1.43
2019-03-11T15:25:34.086Z,1.90
2019-03-11T15:29:36.615Z,2.17
2019-03-11T15:33:41.134Z,2.07
2019-03-11T15:37:43.746Z,2.10
2019-03-11T15:41:49.413Z,2.50
2019-03-11T15:45:51.857Z,2.30
2019-03-11T15:49:54.399Z,4.67
2019-03-11T15:53:56.855Z,2.43
2019-03-11T15:57:59.391Z,2.43
2019-03-11T16:02:02.042Z,3.50
2019-03-11T16:06:04.813Z,2.60
2019-03-11T16:10:16.382Z,2.13
2019-03-11T16:14:13.017Z,3.93
2019-03-11T16:18:15.560Z,3.83
2019-03-11T16:22:23.263Z,2.87
2019-03-11T16:26:22.715Z,2.83
2019-03-11T16:30:25.495Z,2.90
2019-03-11T16:34:30.316Z,4.20
2019-03-11T16:38:33.329Z,2.73
2019-03-11T16:42:36.129Z,5.57
2019-03-11T16:46:40.664Z,4.73
2019-03-11T16:50:43.411Z,3.40
2019-03-11T16:54:45.977Z,2.90
2019-03-11T16:58:48.441Z,3.97
2019-03-11T17:02:51.132Z,4.10
2019-03-11T17:06:53.921Z,4.40
2019-03-11T17:10:57.517Z,2.90
2019-03-11T17:15:00.008Z,3.33
2019-03-11T17:19:02.925Z,3.17
2019-03-11T17:23:05.537Z,2.90
2019-03-11T17:27:08.031Z,5.13
2019-03-11T17:31:10.451Z,4.73
2019-03-11T17:35:13.131Z,3.97
2019-03-11T17:39:15.911Z,3.07
2019-03-11T17:43:20.032Z,3.73
2019-03-11T17:47:22.551Z,3.50
2019-03-11T17:51:25.482Z,3.30
2019-03-11T17:55:28.011Z,3.53
2019-03-11T17:59:30.739Z,2.60
2019-03-11T18:03:33.346Z,2.63
2019-03-11T18:07:35.917Z,3.20
2019-03-11T18:11:39.897Z,4.50
2019-03-11T18:15:42.889Z,4.83
2019-03-11T18:19:46.867Z,3.50
2019-03-11T18:23:49.404Z,3.57
2019-03-11T18:27:51.942Z,4.00
2019-03-11T18:32:01.967Z,3.27
2019-03-11T18:35:58.992Z,3.77
2019-03-11T18:40:01.490Z,3.17
2019-03-11T18:44:05.915Z,3.50
2019-03-11T18:48:08.639Z,3.80
2019-03-11T18:52:11.229Z,3.73
2019-03-11T18:56:13.791Z,4.23
2019-03-11T19:00:18.791Z,4.10
2019-03-11T19:04:21.343Z,3.80
2019-03-11T19:08:25.158Z,3.10
2019-03-11T19:12:27.865Z,4.00
2019-03-11T19:16:30.443Z,3.17
2019-03-11T19:20:35.098Z,3.60
2019-03-11T19:24:37.625Z,1.17
2019-03-11T19:28:40.199Z,3.23
2019-03-11T19:32:42.692Z,3.33
2019-03-11T19:36:46.806Z,3.03
2019-03-11T19:40:49.416Z,3.60
2019-03-11T19:44:51.934Z,3.57
2019-03-11T19:48:54.407Z,3.80
2019-03-11T19:52:58.970Z,4.87
2019-03-11T19:57:01.223Z,4.37
2019-03-11T20:01:03.856Z,3.03
2019-03-11T20:05:07.148Z,4.17
2019-03-11T20:09:14.652Z,3.50
2019-03-11T20:13:17.621Z,3.20
2019-03-11T20:17:20.510Z,3.70
2019-03-11T20:21:25.112Z,3.20
2019-03-11T20:25:29.308Z,3.20
2019-03-11T20:29:33.926Z,2.97
2019-03-11T20:33:36.079Z,3.03
2019-03-11T20:37:38.602Z,3.10
2019-03-11T20:41:41.443Z,3.20
2019-03-11T20:45:43.946Z,2.90
2019-03-11T20:49:46.529Z,3.10
2019-03-11T20:53:48.999Z,2.20
2019-03-11T20:57:51.590Z,3.13
2019-03-11T21:01:54.094Z,3.70
2019-03-11T21:05:57.040Z,3.60
2019-03-11T21:09:59.530Z,3.43
2019-03-11T21:14:02.149Z,3.20
2019-03-11T21:18:04.799Z,3.37
2019-03-11T21:22:09.348Z,2.83
2019-03-11T21:26:12.076Z,3.77
2019-03-11T21:30:17.403Z,3.03
2019-03-11T21:34:21.264Z,3.37
2019-03-11T21:38:23.815Z,2.70
2019-03-11T21:42:27.483Z,2.90
2019-03-11T21:46:30.256Z,3.30
2019-03-11T21:50:32.840Z,2.90
2019-03-11T21:54:35.420Z,3.00
2019-03-11T21:58:38.039Z,3.37
2019-03-11T22:02:40.700Z,2.73
2019-03-11T22:06:43.281Z,2.97
2019-03-11T22:10:47.186Z,3.37
2019-03-11T22:14:49.488Z,3.07
2019-03-11T22:18:52.017Z,3.30
2019-03-11T22:22:54.703Z,3.17
2019-03-11T22:26:57.067Z,3.20
2019-03-11T22:30:59.428Z,3.83
2019-03-11T22:35:12.149Z,2.50
2019-03-11T22:39:06.847Z,3.53
2019-03-11T22:43:09.336Z,2.83
2019-03-11T22:47:11.818Z,2.60
2019-03-11T22:51:14.350Z,2.90
2019-03-11T22:55:17.399Z,3.63
2019-03-11T22:59:21.024Z,2.67
2019-03-11T23:03:24.338Z,2.83
2019-03-11T23:07:26.665Z,3.93
2019-03-11T23:11:28.948Z,2.33
2019-03-11T23:15:31.533Z,2.90
2019-03-11T23:19:33.787Z,3.07
2019-03-11T23:23:36.648Z,3.20
2019-03-11T23:27:38.981Z,2.60
2019-03-11T23:31:41.336Z,2.53
2019-03-11T23:35:43.701Z,3.03
2019-03-11T23:39:46.070Z,3.13
2019-03-11T23:43:48.316Z,2.83
2019-03-11T23:47:50.692Z,2.53
2019-03-11T23:51:53.033Z,2.87
2019-03-11T23:55:55.408Z,2.63
2019-03-11T23:59:57.690Z,1.90
